sensor_id;sensor_type;location;lat;lon;timestamp;temperature;humidity
18287;DHT22;9269;50.838;12.094;2023-05-14T00:00:32;18.20;34.70
18287;DHT22;9269;50.838;12.094;2023-05-14T00:03:00;18.20;34.70
18287;DHT22;9269;50.838;12.094;2023-05-14T00:05:29;18.20;34.60
18287;DHT22;9269;50.838;12.094;2023-05-14T00:07:58;18.10;35.70
18287;DHT22;9269;50.838;12.094;2023-05-14T00:10:28;18.10;35.80
18287;DHT22;9269;50.838;12.094;2023-05-14T00:12:56;18.20;34.80
18287;DHT22;9269;50.838;12.094;2023-05-14T00:15:24;18.10;36.20
18287;DHT22;9269;50.838;12.094;2023-05-14T00:17:54;18.10;36.20
18287;DHT22;9269;50.838;12.094;2023-05-14T00:20:22;18.00;36.10
18287;DHT22;9269;50.838;12.094;2023-05-14T00:22:51;18.00;36.30
18287;DHT22;9269;50.838;12.094;2023-05-14T00:25:20;17.90;36.30
18287;DHT22;9269;50.838;12.094;2023-05-14T00:27:49;18.00;36.10
18287;DHT22;9269;50.838;12.094;2023-05-14T00:30:18;18.00;36.30
18287;DHT22;9269;50.838;12.094;2023-05-14T00:32:46;17.90;36.10
18287;DHT22;9269;50.838;12.094;2023-05-14T00:35:15;17.90;36.20
18287;DHT22;9269;50.838;12.094;2023-05-14T00:37:43;17.90;36.10
18287;DHT22;9269;50.838;12.094;2023-05-14T00:40:12;17.90;36.40
18287;DHT22;9269;50.838;12.094;2023-05-14T00:42:41;17.90;36.00
18287;DHT22;9269;50.838;12.094;2023-05-14T00:45:11;17.90;36.40
18287;DHT22;9269;50.838;12.094;2023-05-14T00:47:39;17.80;36.70
18287;DHT22;9269;50.838;12.094;2023-05-14T00:50:09;17.80;36.50
18287;DHT22;9269;50.838;12.094;2023-05-14T00:52:38;17.70;36.80
18287;DHT22;9269;50.838;12.094;2023-05-14T00:55:08;17.50;36.70
18287;DHT22;9269;50.838;12.094;2023-05-14T00:57:38;17.40;36.90
18287;DHT22;9269;50.838;12.094;2023-05-14T01:00:08;17.40;36.80
18287;DHT22;9269;50.838;12.094;2023-05-14T01:02:38;17.40;36.80
18287;DHT22;9269;50.838;12.094;2023-05-14T01:05:07;17.30;37.20
18287;DHT22;9269;50.838;12.094;2023-05-14T01:07:44;17.30;37.50
18287;DHT22;9269;50.838;12.094;2023-05-14T01:10:20;17.30;37.50
18287;DHT22;9269;50.838;12.094;2023-05-14T01:12:54;17.30;37.80
18287;DHT22;9269;50.838;12.094;2023-05-14T01:15:27;17.30;38.10
18287;DHT22;9269;50.838;12.094;2023-05-14T01:18:02;17.30;37.90
18287;DHT22;9269;50.838;12.094;2023-05-14T01:20:31;17.30;38.20
18287;DHT22;9269;50.838;12.094;2023-05-14T01:23:01;17.20;38.10
18287;DHT22;9269;50.838;12.094;2023-05-14T01:25:30;17.30;38.40
18287;DHT22;9269;50.838;12.094;2023-05-14T01:28:02;17.20;38.30
18287;DHT22;9269;50.838;12.094;2023-05-14T01:30:35;17.30;38.10
18287;DHT22;9269;50.838;12.094;2023-05-14T01:33:06;17.20;38.40
18287;DHT22;9269;50.838;12.094;2023-05-14T01:35:37;17.20;38.00
18287;DHT22;9269;50.838;12.094;2023-05-14T01:38:10;17.20;38.10
18287;DHT22;9269;50.838;12.094;2023-05-14T01:40:39;17.10;38.00
18287;DHT22;9269;50.838;12.094;2023-05-14T01:43:08;17.10;38.20
18287;DHT22;9269;50.838;12.094;2023-05-14T01:45:36;17.10;38.20
18287;DHT22;9269;50.838;12.094;2023-05-14T01:48:05;17.10;38.10
18287;DHT22;9269;50.838;12.094;2023-05-14T01:50:34;17.10;37.80
18287;DHT22;9269;50.838;12.094;2023-05-14T01:53:02;17.00;37.90
18287;DHT22;9269;50.838;12.094;2023-05-14T01:55:32;17.10;37.90
18287;DHT22;9269;50.838;12.094;2023-05-14T01:58:00;17.00;38.00
18287;DHT22;9269;50.838;12.094;2023-05-14T02:00:29;17.10;38.40
18287;DHT22;9269;50.838;12.094;2023-05-14T02:02:57;17.00;38.40
18287;DHT22;9269;50.838;12.094;2023-05-14T02:05:26;17.10;38.70
18287;DHT22;9269;50.838;12.094;2023-05-14T02:07:55;16.90;38.90
18287;DHT22;9269;50.838;12.094;2023-05-14T02:10:24;16.90;38.30
18287;DHT22;9269;50.838;12.094;2023-05-14T02:12:54;16.80;38.80
18287;DHT22;9269;50.838;12.094;2023-05-14T02:15:23;17.00;38.40
18287;DHT22;9269;50.838;12.094;2023-05-14T02:17:51;16.90;38.50
18287;DHT22;9269;50.838;12.094;2023-05-14T02:20:20;17.00;38.90
18287;DHT22;9269;50.838;12.094;2023-05-14T02:22:48;17.00;38.90
18287;DHT22;9269;50.838;12.094;2023-05-14T02:25:18;16.90;39.20
18287;DHT22;9269;50.838;12.094;2023-05-14T02:27:48;16.90;39.20
18287;DHT22;9269;50.838;12.094;2023-05-14T02:30:18;16.90;39.00
18287;DHT22;9269;50.838;12.094;2023-05-14T02:32:46;16.80;39.00
18287;DHT22;9269;50.838;12.094;2023-05-14T02:35:15;16.80;39.40
18287;DHT22;9269;50.838;12.094;2023-05-14T02:37:43;16.90;39.10
18287;DHT22;9269;50.838;12.094;2023-05-14T02:40:12;16.80;38.90
18287;DHT22;9269;50.838;12.094;2023-05-14T02:42:40;16.80;39.10
18287;DHT22;9269;50.838;12.094;2023-05-14T02:45:09;16.80;39.70
18287;DHT22;9269;50.838;12.094;2023-05-14T02:47:39;16.80;40.00
18287;DHT22;9269;50.838;12.094;2023-05-14T02:50:09;16.70;40.00
18287;DHT22;9269;50.838;12.094;2023-05-14T02:52:37;16.70;40.10
18287;DHT22;9269;50.838;12.094;2023-05-14T02:55:06;16.70;39.80
18287;DHT22;9269;50.838;12.094;2023-05-14T02:57:35;16.70;40.10
18287;DHT22;9269;50.838;12.094;2023-05-14T03:00:04;16.70;40.30
18287;DHT22;9269;50.838;12.094;2023-05-14T03:02:34;16.70;40.30
18287;DHT22;9269;50.838;12.094;2023-05-14T03:05:05;16.50;40.30
18287;DHT22;9269;50.838;12.094;2023-05-14T03:07:33;16.60;40.60
18287;DHT22;9269;50.838;12.094;2023-05-14T03:10:02;16.60;40.50
18287;DHT22;9269;50.838;12.094;2023-05-14T03:12:30;16.60;40.50
18287;DHT22;9269;50.838;12.094;2023-05-14T03:14:59;16.60;40.40
18287;DHT22;9269;50.838;12.094;2023-05-14T03:17:27;16.50;40.50
18287;DHT22;9269;50.838;12.094;2023-05-14T03:19:56;16.60;40.50
18287;DHT22;9269;50.838;12.094;2023-05-14T03:22:26;16.50;40.30
18287;DHT22;9269;50.838;12.094;2023-05-14T03:24:54;16.50;40.50
18287;DHT22;9269;50.838;12.094;2023-05-14T03:27:23;16.50;40.30
18287;DHT22;9269;50.838;12.094;2023-05-14T03:29:51;16.50;40.80
18287;DHT22;9269;50.838;12.094;2023-05-14T03:32:20;16.40;40.60
18287;DHT22;9269;50.838;12.094;2023-05-14T03:34:48;16.40;41.00
18287;DHT22;9269;50.838;12.094;2023-05-14T03:37:17;16.40;40.50
18287;DHT22;9269;50.838;12.094;2023-05-14T03:39:47;16.40;40.60
18287;DHT22;9269;50.838;12.094;2023-05-14T03:42:15;16.40;40.80
18287;DHT22;9269;50.838;12.094;2023-05-14T03:44:44;16.40;40.40
18287;DHT22;9269;50.838;12.094;2023-05-14T03:47:12;16.30;40.60
18287;DHT22;9269;50.838;12.094;2023-05-14T03:49:41;16.30;40.50
18287;DHT22;9269;50.838;12.094;2023-05-14T03:52:09;16.30;40.70
18287;DHT22;9269;50.838;12.094;2023-05-14T03:54:38;16.40;40.60
18287;DHT22;9269;50.838;12.094;2023-05-14T03:57:08;16.30;40.60
18287;DHT22;9269;50.838;12.094;2023-05-14T03:59:37;16.40;40.60
18287;DHT22;9269;50.838;12.094;2023-05-14T04:02:05;16.30;40.90
18287;DHT22;9269;50.838;12.094;2023-05-14T04:04:34;16.20;41.20
18287;DHT22;9269;50.838;12.094;2023-05-14T04:07:03;16.30;40.80
18287;DHT22;9269;50.838;12.094;2023-05-14T04:09:31;16.30;41.40
18287;DHT22;9269;50.838;12.094;2023-05-14T04:12:00;16.30;41.50
18287;DHT22;9269;50.838;12.094;2023-05-14T04:14:29;16.30;42.00
18287;DHT22;9269;50.838;12.094;2023-05-14T04:16:58;16.20;42.30
18287;DHT22;9269;50.838;12.094;2023-05-14T04:19:26;16.20;42.10
18287;DHT22;9269;50.838;12.094;2023-05-14T04:21:55;16.10;42.00
18287;DHT22;9269;50.838;12.094;2023-05-14T04:24:23;16.20;41.50
18287;DHT22;9269;50.838;12.094;2023-05-14T04:26:52;16.20;41.40
18287;DHT22;9269;50.838;12.094;2023-05-14T04:29:20;16.20;41.20
18287;DHT22;9269;50.838;12.094;2023-05-14T04:31:50;16.20;40.80
18287;DHT22;9269;50.838;12.094;2023-05-14T04:34:19;16.10;40.60
18287;DHT22;9269;50.838;12.094;2023-05-14T04:36:47;16.10;40.50
18287;DHT22;9269;50.838;12.094;2023-05-14T04:39:15;16.10;40.60
18287;DHT22;9269;50.838;12.094;2023-05-14T04:41:45;16.00;41.20
18287;DHT22;9269;50.838;12.094;2023-05-14T04:44:13;16.00;41.70
18287;DHT22;9269;50.838;12.094;2023-05-14T04:46:42;16.10;41.70
18287;DHT22;9269;50.838;12.094;2023-05-14T04:49:12;16.10;42.20
18287;DHT22;9269;50.838;12.094;2023-05-14T04:51:41;16.10;41.80
18287;DHT22;9269;50.838;12.094;2023-05-14T04:54:09;16.20;41.80
18287;DHT22;9269;50.838;12.094;2023-05-14T04:56:38;16.20;42.00
18287;DHT22;9269;50.838;12.094;2023-05-14T04:59:06;16.20;41.70
18287;DHT22;9269;50.838;12.094;2023-05-14T05:01:35;16.20;41.20
18287;DHT22;9269;50.838;12.094;2023-05-14T05:04:03;16.30;41.30
18287;DHT22;9269;50.838;12.094;2023-05-14T05:06:33;16.30;41.20
18287;DHT22;9269;50.838;12.094;2023-05-14T05:09:02;16.30;40.80
18287;DHT22;9269;50.838;12.094;2023-05-14T05:11:31;16.50;40.60
18287;DHT22;9269;50.838;12.094;2023-05-14T05:13:59;16.40;40.70
18287;DHT22;9269;50.838;12.094;2023-05-14T05:16:28;16.50;40.30
18287;DHT22;9269;50.838;12.094;2023-05-14T05:18:56;16.50;40.30
18287;DHT22;9269;50.838;12.094;2023-05-14T05:21:26;16.60;40.50
18287;DHT22;9269;50.838;12.094;2023-05-14T05:23:55;16.60;40.70
18287;DHT22;9269;50.838;12.094;2023-05-14T05:26:25;16.70;40.10
18287;DHT22;9269;50.838;12.094;2023-05-14T05:28:54;16.70;39.80
18287;DHT22;9269;50.838;12.094;2023-05-14T05:31:22;16.80;40.00
18287;DHT22;9269;50.838;12.094;2023-05-14T05:33:51;16.80;39.90
18287;DHT22;9269;50.838;12.094;2023-05-14T05:36:19;16.80;39.90
18287;DHT22;9269;50.838;12.094;2023-05-14T05:38:48;16.90;39.90
18287;DHT22;9269;50.838;12.094;2023-05-14T05:41:18;17.10;39.70
18287;DHT22;9269;50.838;12.094;2023-05-14T05:43:46;17.10;39.90
18287;DHT22;9269;50.838;12.094;2023-05-14T05:46:15;17.20;40.40
18287;DHT22;9269;50.838;12.094;2023-05-14T05:48:43;17.30;40.30
18287;DHT22;9269;50.838;12.094;2023-05-14T05:51:12;17.30;40.30
18287;DHT22;9269;50.838;12.094;2023-05-14T05:53:40;17.30;39.80
18287;DHT22;9269;50.838;12.094;2023-05-14T05:56:09;17.40;39.60
18287;DHT22;9269;50.838;12.094;2023-05-14T05:58:39;17.40;40.00
18287;DHT22;9269;50.838;12.094;2023-05-14T06:01:08;17.60;40.20
18287;DHT22;9269;50.838;12.094;2023-05-14T06:03:36;17.60;39.60
18287;DHT22;9269;50.838;12.094;2023-05-14T06:06:06;17.70;39.40
18287;DHT22;9269;50.838;12.094;2023-05-14T06:08:34;17.90;39.50
18287;DHT22;9269;50.838;12.094;2023-05-14T06:11:03;18.00;39.60
18287;DHT22;9269;50.838;12.094;2023-05-14T06:13:31;18.20;38.40
18287;DHT22;9269;50.838;12.094;2023-05-14T06:16:01;18.30;38.10
18287;DHT22;9269;50.838;12.094;2023-05-14T06:18:29;18.50;37.80
18287;DHT22;9269;50.838;12.094;2023-05-14T06:20:58;18.60;38.00
18287;DHT22;9269;50.838;12.094;2023-05-14T06:23:27;18.70;37.90
18287;DHT22;9269;50.838;12.094;2023-05-14T06:25:55;18.80;37.60
18287;DHT22;9269;50.838;12.094;2023-05-14T06:28:24;18.90;37.70
18287;DHT22;9269;50.838;12.094;2023-05-14T06:30:52;18.80;37.40
18287;DHT22;9269;50.838;12.094;2023-05-14T06:33:23;19.00;37.60
18287;DHT22;9269;50.838;12.094;2023-05-14T06:35:57;19.00;37.20
18287;DHT22;9269;50.838;12.094;2023-05-14T06:38:26;19.00;37.40
18287;DHT22;9269;50.838;12.094;2023-05-14T06:40:54;19.10;37.20
18287;DHT22;9269;50.838;12.094;2023-05-14T06:43:23;19.10;37.30
18287;DHT22;9269;50.838;12.094;2023-05-14T06:45:51;19.10;37.10
18287;DHT22;9269;50.838;12.094;2023-05-14T06:48:20;19.00;37.50
18287;DHT22;9269;50.838;12.094;2023-05-14T06:50:50;19.10;37.50
18287;DHT22;9269;50.838;12.094;2023-05-14T06:53:19;19.20;37.30
18287;DHT22;9269;50.838;12.094;2023-05-14T06:55:47;19.10;37.20
18287;DHT22;9269;50.838;12.094;2023-05-14T06:58:16;19.10;37.00
18287;DHT22;9269;50.838;12.094;2023-05-14T07:00:44;19.10;37.00
18287;DHT22;9269;50.838;12.094;2023-05-14T07:03:13;19.10;36.50
18287;DHT22;9269;50.838;12.094;2023-05-14T07:05:41;19.20;36.70
18287;DHT22;9269;50.838;12.094;2023-05-14T07:08:13;19.50;36.70
18287;DHT22;9269;50.838;12.094;2023-05-14T07:10:41;19.60;36.30
18287;DHT22;9269;50.838;12.094;2023-05-14T07:13:10;19.80;36.00
18287;DHT22;9269;50.838;12.094;2023-05-14T07:15:38;20.00;36.20
18287;DHT22;9269;50.838;12.094;2023-05-14T07:18:06;20.20;35.80
18287;DHT22;9269;50.838;12.094;2023-05-14T07:20:35;20.40;35.20
18287;DHT22;9269;50.838;12.094;2023-05-14T07:23:03;20.60;34.90
18287;DHT22;9269;50.838;12.094;2023-05-14T07:25:33;20.70;34.50
18287;DHT22;9269;50.838;12.094;2023-05-14T07:28:02;20.90;33.20
18287;DHT22;9269;50.838;12.094;2023-05-14T07:30:30;21.00;33.60
18287;DHT22;9269;50.838;12.094;2023-05-14T07:32:59;21.10;33.50
18287;DHT22;9269;50.838;12.094;2023-05-14T07:35:27;21.40;32.60
18287;DHT22;9269;50.838;12.094;2023-05-14T07:37:56;21.50;32.40
18287;DHT22;9269;50.838;12.094;2023-05-14T07:40:25;21.60;32.20
18287;DHT22;9269;50.838;12.094;2023-05-14T07:42:55;21.60;32.10
18287;DHT22;9269;50.838;12.094;2023-05-14T07:45:23;21.70;32.10
18287;DHT22;9269;50.838;12.094;2023-05-14T07:47:51;21.80;31.70
18287;DHT22;9269;50.838;12.094;2023-05-14T07:50:20;21.90;31.80
18287;DHT22;9269;50.838;12.094;2023-05-14T07:52:49;21.90;31.30
18287;DHT22;9269;50.838;12.094;2023-05-14T07:55:17;22.10;31.20
18287;DHT22;9269;50.838;12.094;2023-05-14T07:57:46;22.10;31.20
18287;DHT22;9269;50.838;12.094;2023-05-14T08:00:16;22.30;30.70
18287;DHT22;9269;50.838;12.094;2023-05-14T08:02:45;22.40;30.50
18287;DHT22;9269;50.838;12.094;2023-05-14T08:05:15;22.50;30.60
18287;DHT22;9269;50.838;12.094;2023-05-14T08:07:44;22.70;30.60
18287;DHT22;9269;50.838;12.094;2023-05-14T08:10:12;22.70;30.90
18287;DHT22;9269;50.838;12.094;2023-05-14T08:12:41;22.80;30.30
18287;DHT22;9269;50.838;12.094;2023-05-14T08:15:09;23.00;30.00
18287;DHT22;9269;50.838;12.094;2023-05-14T08:17:39;23.10;29.90
18287;DHT22;9269;50.838;12.094;2023-05-14T08:20:09;23.20;28.80
18287;DHT22;9269;50.838;12.094;2023-05-14T08:22:38;23.30;29.20
18287;DHT22;9269;50.838;12.094;2023-05-14T08:25:07;23.40;29.60
18287;DHT22;9269;50.838;12.094;2023-05-14T08:27:36;23.50;29.60
18287;DHT22;9269;50.838;12.094;2023-05-14T08:30:05;23.70;28.50
18287;DHT22;9269;50.838;12.094;2023-05-14T08:32:34;23.80;27.50
18287;DHT22;9269;50.838;12.094;2023-05-14T08:35:06;23.90;27.80
18287;DHT22;9269;50.838;12.094;2023-05-14T08:37:35;23.90;28.20
18287;DHT22;9269;50.838;12.094;2023-05-14T08:40:04;24.00;28.10
18287;DHT22;9269;50.838;12.094;2023-05-14T08:42:37;24.10;27.10
18287;DHT22;9269;50.838;12.094;2023-05-14T08:45:10;24.20;27.00
18287;DHT22;9269;50.838;12.094;2023-05-14T08:47:41;24.40;26.20
18287;DHT22;9269;50.838;12.094;2023-05-14T08:50:11;24.50;26.90
18287;DHT22;9269;50.838;12.094;2023-05-14T08:52:40;24.60;26.50
18287;DHT22;9269;50.838;12.094;2023-05-14T08:55:11;24.70;26.60
18287;DHT22;9269;50.838;12.094;2023-05-14T08:57:39;24.60;26.10
18287;DHT22;9269;50.838;12.094;2023-05-14T09:00:09;24.50;25.60
18287;DHT22;9269;50.838;12.094;2023-05-14T09:02:39;24.60;25.30
18287;DHT22;9269;50.838;12.094;2023-05-14T09:05:08;24.40;25.20
18287;DHT22;9269;50.838;12.094;2023-05-14T09:07:38;24.50;25.80
18287;DHT22;9269;50.838;12.094;2023-05-14T09:10:08;24.60;25.30
18287;DHT22;9269;50.838;12.094;2023-05-14T09:12:37;24.90;25.50
18287;DHT22;9269;50.838;12.094;2023-05-14T09:15:06;25.00;25.30
18287;DHT22;9269;50.838;12.094;2023-05-14T09:17:35;25.00;24.70
18287;DHT22;9269;50.838;12.094;2023-05-14T09:20:04;24.80;24.40
18287;DHT22;9269;50.838;12.094;2023-05-14T09:22:33;24.90;24.10
18287;DHT22;9269;50.838;12.094;2023-05-14T09:25:05;25.00;23.90
18287;DHT22;9269;50.838;12.094;2023-05-14T09:27:36;25.20;23.40
18287;DHT22;9269;50.838;12.094;2023-05-14T09:30:06;25.40;23.90
18287;DHT22;9269;50.838;12.094;2023-05-14T09:32:37;25.80;24.40
18287;DHT22;9269;50.838;12.094;2023-05-14T09:35:14;25.80;24.20
18287;DHT22;9269;50.838;12.094;2023-05-14T09:37:45;25.70;23.60
18287;DHT22;9269;50.838;12.094;2023-05-14T09:40:17;25.70;23.50
18287;DHT22;9269;50.838;12.094;2023-05-14T09:42:47;25.70;23.90
18287;DHT22;9269;50.838;12.094;2023-05-14T09:45:16;25.70;23.40
18287;DHT22;9269;50.838;12.094;2023-05-14T09:47:45;25.60;22.30
18287;DHT22;9269;50.838;12.094;2023-05-14T09:50:14;25.60;20.90
18287;DHT22;9269;50.838;12.094;2023-05-14T09:52:42;25.60;21.60
18287;DHT22;9269;50.838;12.094;2023-05-14T09:55:11;25.70;21.90
18287;DHT22;9269;50.838;12.094;2023-05-14T09:57:41;25.70;22.30
18287;DHT22;9269;50.838;12.094;2023-05-14T10:00:10;25.80;22.40
18287;DHT22;9269;50.838;12.094;2023-05-14T10:02:40;25.80;22.60
18287;DHT22;9269;50.838;12.094;2023-05-14T10:05:11;25.80;22.40
18287;DHT22;9269;50.838;12.094;2023-05-14T10:07:45;25.90;21.10
18287;DHT22;9269;50.838;12.094;2023-05-14T10:10:15;25.70;21.40
18287;DHT22;9269;50.838;12.094;2023-05-14T10:12:50;25.70;21.80
18287;DHT22;9269;50.838;12.094;2023-05-14T10:15:29;25.50;22.00
18287;DHT22;9269;50.838;12.094;2023-05-14T10:18:05;25.50;20.60
18287;DHT22;9269;50.838;12.094;2023-05-14T10:20:36;25.50;21.10
18287;DHT22;9269;50.838;12.094;2023-05-14T10:23:05;25.50;20.90
18287;DHT22;9269;50.838;12.094;2023-05-14T10:25:34;25.80;21.30
18287;DHT22;9269;50.838;12.094;2023-05-14T10:28:05;25.80;21.00
18287;DHT22;9269;50.838;12.094;2023-05-14T10:30:34;25.90;21.30
18287;DHT22;9269;50.838;12.094;2023-05-14T10:33:06;25.80;21.10
18287;DHT22;9269;50.838;12.094;2023-05-14T10:35:54;25.60;20.10
18287;DHT22;9269;50.838;12.094;2023-05-14T10:38:26;25.40;19.90
18287;DHT22;9269;50.838;12.094;2023-05-14T10:40:56;25.20;19.50
18287;DHT22;9269;50.838;12.094;2023-05-14T10:43:28;25.30;19.50
18287;DHT22;9269;50.838;12.094;2023-05-14T10:45:59;25.20;19.50
18287;DHT22;9269;50.838;12.094;2023-05-14T10:48:29;25.20;20.40
18287;DHT22;9269;50.838;12.094;2023-05-14T10:50:58;25.20;21.10
18287;DHT22;9269;50.838;12.094;2023-05-14T10:53:35;25.10;20.40
18287;DHT22;9269;50.838;12.094;2023-05-14T10:56:06;25.00;20.60
18287;DHT22;9269;50.838;12.094;2023-05-14T10:58:37;25.00;21.40
18287;DHT22;9269;50.838;12.094;2023-05-14T11:01:07;25.00;21.80
18287;DHT22;9269;50.838;12.094;2023-05-14T11:03:40;25.00;22.00
18287;DHT22;9269;50.838;12.094;2023-05-14T11:06:11;25.00;22.30
18287;DHT22;9269;50.838;12.094;2023-05-14T11:08:40;25.00;22.40
18287;DHT22;9269;50.838;12.094;2023-05-14T11:11:09;25.00;22.40
18287;DHT22;9269;50.838;12.094;2023-05-14T11:13:40;25.10;22.20
18287;DHT22;9269;50.838;12.094;2023-05-14T11:16:09;25.30;21.60
18287;DHT22;9269;50.838;12.094;2023-05-14T11:18:53;25.40;21.60
18287;DHT22;9269;50.838;12.094;2023-05-14T11:21:28;25.80;21.30
18287;DHT22;9269;50.838;12.094;2023-05-14T11:23:56;25.90;21.20
18287;DHT22;9269;50.838;12.094;2023-05-14T11:26:26;26.00;20.40
18287;DHT22;9269;50.838;12.094;2023-05-14T11:28:56;26.00;20.40
18287;DHT22;9269;50.838;12.094;2023-05-14T11:31:25;25.70;20.80
18287;DHT22;9269;50.838;12.094;2023-05-14T11:33:54;25.50;20.90
18287;DHT22;9269;50.838;12.094;2023-05-14T11:36:23;25.40;21.00
18287;DHT22;9269;50.838;12.094;2023-05-14T11:38:52;25.40;20.80
18287;DHT22;9269;50.838;12.094;2023-05-14T11:41:20;25.50;20.20
18287;DHT22;9269;50.838;12.094;2023-05-14T11:43:49;25.60;19.70
18287;DHT22;9269;50.838;12.094;2023-05-14T11:46:19;25.60;20.20
18287;DHT22;9269;50.838;12.094;2023-05-14T11:48:48;25.70;20.40
18287;DHT22;9269;50.838;12.094;2023-05-14T11:51:17;25.70;20.00
18287;DHT22;9269;50.838;12.094;2023-05-14T11:53:46;25.70;19.60
18287;DHT22;9269;50.838;12.094;2023-05-14T11:56:15;26.00;19.10
18287;DHT22;9269;50.838;12.094;2023-05-14T11:58:47;26.20;18.60
18287;DHT22;9269;50.838;12.094;2023-05-14T12:01:15;26.20;19.20
18287;DHT22;9269;50.838;12.094;2023-05-14T12:03:45;26.30;19.50
18287;DHT22;9269;50.838;12.094;2023-05-14T12:06:15;26.40;18.80
18287;DHT22;9269;50.838;12.094;2023-05-14T12:08:43;26.60;18.90
18287;DHT22;9269;50.838;12.094;2023-05-14T12:11:19;26.60;18.30
18287;DHT22;9269;50.838;12.094;2023-05-14T12:13:49;26.30;18.70
18287;DHT22;9269;50.838;12.094;2023-05-14T12:16:19;26.10;19.50
18287;DHT22;9269;50.838;12.094;2023-05-14T12:18:49;26.20;19.10
18287;DHT22;9269;50.838;12.094;2023-05-14T12:21:18;26.20;19.10
18287;DHT22;9269;50.838;12.094;2023-05-14T12:23:56;26.30;19.50
18287;DHT22;9269;50.838;12.094;2023-05-14T12:26:25;26.40;19.00
18287;DHT22;9269;50.838;12.094;2023-05-14T12:28:56;26.40;19.60
18287;DHT22;9269;50.838;12.094;2023-05-14T12:31:27;26.60;19.10
18287;DHT22;9269;50.838;12.094;2023-05-14T12:33:58;26.70;19.10
18287;DHT22;9269;50.838;12.094;2023-05-14T12:36:27;26.80;18.60
18287;DHT22;9269;50.838;12.094;2023-05-14T12:38:58;26.70;18.70
18287;DHT22;9269;50.838;12.094;2023-05-14T12:41:29;26.70;17.90
18287;DHT22;9269;50.838;12.094;2023-05-14T12:43:58;26.50;17.70
18287;DHT22;9269;50.838;12.094;2023-05-14T12:46:27;26.30;18.10
18287;DHT22;9269;50.838;12.094;2023-05-14T12:48:58;26.20;18.80
18287;DHT22;9269;50.838;12.094;2023-05-14T12:51:27;25.90;19.70
18287;DHT22;9269;50.838;12.094;2023-05-14T12:53:56;25.70;19.20
18287;DHT22;9269;50.838;12.094;2023-05-14T12:56:24;25.50;19.20
18287;DHT22;9269;50.838;12.094;2023-05-14T12:58:54;25.30;19.90
18287;DHT22;9269;50.838;12.094;2023-05-14T13:01:23;25.20;20.70
18287;DHT22;9269;50.838;12.094;2023-05-14T13:03:55;25.00;20.90
18287;DHT22;9269;50.838;12.094;2023-05-14T13:06:26;25.00;20.90
18287;DHT22;9269;50.838;12.094;2023-05-14T13:08:55;24.90;21.10
18287;DHT22;9269;50.838;12.094;2023-05-14T13:11:26;24.80;21.20
18287;DHT22;9269;50.838;12.094;2023-05-14T13:14:00;24.70;21.10
18287;DHT22;9269;50.838;12.094;2023-05-14T13:16:29;24.70;21.20
18287;DHT22;9269;50.838;12.094;2023-05-14T13:18:57;24.60;21.00
18287;DHT22;9269;50.838;12.094;2023-05-14T13:21:29;24.50;20.80
18287;DHT22;9269;50.838;12.094;2023-05-14T13:23:58;24.40;21.10
18287;DHT22;9269;50.838;12.094;2023-05-14T13:26:27;24.40;21.70
18287;DHT22;9269;50.838;12.094;2023-05-14T13:28:56;24.30;21.60
18287;DHT22;9269;50.838;12.094;2023-05-14T13:31:26;24.30;22.20
18287;DHT22;9269;50.838;12.094;2023-05-14T13:33:55;24.30;22.40
18287;DHT22;9269;50.838;12.094;2023-05-14T13:36:24;24.20;22.40
18287;DHT22;9269;50.838;12.094;2023-05-14T13:38:54;24.20;22.50
18287;DHT22;9269;50.838;12.094;2023-05-14T13:41:24;24.20;22.30
18287;DHT22;9269;50.838;12.094;2023-05-14T13:43:53;24.20;22.40
18287;DHT22;9269;50.838;12.094;2023-05-14T13:46:21;24.20;22.00
18287;DHT22;9269;50.838;12.094;2023-05-14T13:48:50;24.10;21.80
18287;DHT22;9269;50.838;12.094;2023-05-14T13:51:18;24.10;22.00
18287;DHT22;9269;50.838;12.094;2023-05-14T13:53:48;24.00;22.10
18287;DHT22;9269;50.838;12.094;2023-05-14T13:56:21;24.00;21.80
18287;DHT22;9269;50.838;12.094;2023-05-14T13:58:49;24.00;21.80
18287;DHT22;9269;50.838;12.094;2023-05-14T14:01:19;24.00;21.60
18287;DHT22;9269;50.838;12.094;2023-05-14T14:03:48;24.00;21.80
18287;DHT22;9269;50.838;12.094;2023-05-14T14:06:16;23.90;21.70
18287;DHT22;9269;50.838;12.094;2023-05-14T14:08:45;24.00;22.40
18287;DHT22;9269;50.838;12.094;2023-05-14T14:11:14;23.90;22.80
18287;DHT22;9269;50.838;12.094;2023-05-14T14:13:45;24.00;23.10
18287;DHT22;9269;50.838;12.094;2023-05-14T14:16:13;24.00;23.20
18287;DHT22;9269;50.838;12.094;2023-05-14T14:18:42;24.00;23.10
18287;DHT22;9269;50.838;12.094;2023-05-14T14:21:11;24.00;22.80
18287;DHT22;9269;50.838;12.094;2023-05-14T14:23:41;24.00;22.90
18287;DHT22;9269;50.838;12.094;2023-05-14T14:26:09;24.00;22.90
18287;DHT22;9269;50.838;12.094;2023-05-14T14:28:38;23.90;23.10
18287;DHT22;9269;50.838;12.094;2023-05-14T14:31:10;23.90;22.70
18287;DHT22;9269;50.838;12.094;2023-05-14T14:33:38;24.00;22.90
18287;DHT22;9269;50.838;12.094;2023-05-14T14:36:07;24.00;22.80
18287;DHT22;9269;50.838;12.094;2023-05-14T14:38:36;24.00;23.30
18287;DHT22;9269;50.838;12.094;2023-05-14T14:41:05;23.90;23.30
18287;DHT22;9269;50.838;12.094;2023-05-14T14:43:36;23.90;23.20
18287;DHT22;9269;50.838;12.094;2023-05-14T14:46:06;24.00;23.40
18287;DHT22;9269;50.838;12.094;2023-05-14T14:48:37;24.00;23.50
18287;DHT22;9269;50.838;12.094;2023-05-14T14:51:07;24.00;23.00
18287;DHT22;9269;50.838;12.094;2023-05-14T14:53:35;24.00;23.20
18287;DHT22;9269;50.838;12.094;2023-05-14T14:56:04;24.10;23.50
18287;DHT22;9269;50.838;12.094;2023-05-14T14:58:33;24.10;23.20
18287;DHT22;9269;50.838;12.094;2023-05-14T15:01:03;24.00;23.00
18287;DHT22;9269;50.838;12.094;2023-05-14T15:03:31;24.00;23.40
18287;DHT22;9269;50.838;12.094;2023-05-14T15:06:01;24.10;23.60
18287;DHT22;9269;50.838;12.094;2023-05-14T15:08:30;24.10;23.70
18287;DHT22;9269;50.838;12.094;2023-05-14T15:10:59;24.10;23.80
18287;DHT22;9269;50.838;12.094;2023-05-14T15:13:28;24.10;23.10
18287;DHT22;9269;50.838;12.094;2023-05-14T15:15:57;24.10;22.50
18287;DHT22;9269;50.838;12.094;2023-05-14T15:18:25;24.10;22.40
18287;DHT22;9269;50.838;12.094;2023-05-14T15:20:54;24.10;22.60
18287;DHT22;9269;50.838;12.094;2023-05-14T15:23:24;24.10;22.40
18287;DHT22;9269;50.838;12.094;2023-05-14T15:25:53;24.20;22.60
18287;DHT22;9269;50.838;12.094;2023-05-14T15:28:22;24.00;22.50
18287;DHT22;9269;50.838;12.094;2023-05-14T15:30:50;24.10;22.30
18287;DHT22;9269;50.838;12.094;2023-05-14T15:33:19;24.10;22.00
18287;DHT22;9269;50.838;12.094;2023-05-14T15:35:48;24.10;22.40
18287;DHT22;9269;50.838;12.094;2023-05-14T15:38:16;24.10;22.80
18287;DHT22;9269;50.838;12.094;2023-05-14T15:40:46;24.10;22.90
18287;DHT22;9269;50.838;12.094;2023-05-14T15:43:17;24.10;22.70